createdAt,value
2018-06-16T00:00:01.563Z,17.40
2018-06-16T00:02:30.008Z,10.23
2018-06-16T00:04:58.531Z,10.50
2018-06-16T00:07:27.039Z,11.17
2018-06-16T00:09:55.735Z,11.00
2018-06-16T00:12:24.128Z,12.43
2018-06-16T00:14:52.627Z,11.77
2018-06-16T00:17:21.024Z,11.57
2018-06-16T00:19:49.435Z,11.57
2018-06-16T00:22:17.797Z,10.87
2018-06-16T00:24:46.250Z,10.80
2018-06-16T00:27:14.684Z,14.37
2018-06-16T00:29:43.085Z,11.70
2018-06-16T00:32:11.602Z,12.17
2018-06-16T00:34:40.050Z,12.30
2018-06-16T00:37:08.552Z,12.70
2018-06-16T00:39:37.008Z,13.20
2018-06-16T00:42:05.432Z,12.30
2018-06-16T00:44:33.834Z,12.47
2018-06-16T00:47:02.371Z,12.40
2018-06-16T00:49:30.786Z,12.40
2018-06-16T00:51:59.141Z,11.60
2018-06-16T00:54:27.575Z,12.57
2018-06-16T00:57:07.477Z,12.17
2018-06-16T00:59:35.894Z,12.97
2018-06-16T01:02:04.672Z,12.07
2018-06-16T01:04:33.128Z,12.80
2018-06-16T01:07:01.550Z,13.03
2018-06-16T01:09:29.982Z,12.27
2018-06-16T01:11:58.371Z,12.53
2018-06-16T01:14:26.772Z,12.80
2018-06-16T01:16:55.212Z,12.87
2018-06-16T01:19:23.636Z,12.27
2018-06-16T01:21:52.057Z,12.87
2018-06-16T01:24:20.428Z,13.47
2018-06-16T01:26:48.890Z,12.03
2018-06-16T01:29:17.436Z,13.60
2018-06-16T01:31:45.842Z,12.97
2018-06-16T01:34:14.255Z,12.77
2018-06-16T01:36:42.688Z,13.37
2018-06-16T01:39:11.837Z,11.27
2018-06-16T01:41:40.228Z,11.90
2018-06-16T01:44:08.641Z,11.50
2018-06-16T01:46:37.191Z,12.00
2018-06-16T01:49:05.610Z,12.63
2018-06-16T01:51:33.997Z,12.87
2018-06-16T01:54:02.418Z,13.67
2018-06-16T01:56:30.813Z,13.73
2018-06-16T01:58:59.220Z,13.10
2018-06-16T02:01:27.623Z,13.87
2018-06-16T02:03:56.301Z,13.37
2018-06-16T02:06:24.783Z,13.20
2018-06-16T02:08:53.319Z,13.47
2018-06-16T02:11:21.798Z,13.63
2018-06-16T02:13:50.186Z,13.20
2018-06-16T02:16:18.665Z,13.17
2018-06-16T02:18:47.144Z,13.47
2018-06-16T02:21:15.559Z,12.67
2018-06-16T02:23:43.937Z,12.87
2018-06-16T02:26:12.429Z,13.07
2018-06-16T02:28:40.825Z,12.17
2018-06-16T02:31:09.232Z,18.10
2018-06-16T02:33:37.625Z,12.73
2018-06-16T02:36:06.356Z,13.80
2018-06-16T02:38:34.760Z,13.80
2018-06-16T02:41:03.223Z,13.77
2018-06-16T02:43:31.724Z,13.30
2018-06-16T02:46:00.303Z,14.33
2018-06-16T02:48:28.728Z,12.97
2018-06-16T02:50:57.199Z,13.77
2018-06-16T02:53:25.757Z,14.33
2018-06-16T02:55:54.238Z,13.70
2018-06-16T02:58:22.659Z,13.53
2018-06-16T03:00:51.029Z,13.97
2018-06-16T03:03:19.480Z,14.13
2018-06-16T03:05:47.877Z,13.97
2018-06-16T03:08:16.331Z,16.53
2018-06-16T03:10:44.773Z,14.50
2018-06-16T03:13:13.173Z,15.30
2018-06-16T03:15:41.603Z,14.10
2018-06-16T03:18:10.018Z,15.07
2018-06-16T03:20:38.445Z,14.93
2018-06-16T03:23:06.982Z,14.27
2018-06-16T03:25:35.432Z,13.47
2018-06-16T03:28:03.913Z,14.40
2018-06-16T03:30:32.356Z,14.50
2018-06-16T03:33:00.775Z,23.37
2018-06-16T03:35:29.158Z,14.70
2018-06-16T03:37:57.590Z,14.20
2018-06-16T03:40:25.961Z,13.97
2018-06-16T03:42:54.341Z,14.40
2018-06-16T03:45:22.736Z,13.90
2018-06-16T03:47:51.128Z,14.13
2018-06-16T03:50:19.528Z,12.97
2018-06-16T03:52:47.930Z,13.47
2018-06-16T03:55:16.345Z,12.47
2018-06-16T03:57:44.763Z,12.40
2018-06-16T04:00:13.224Z,12.00
2018-06-16T04:02:41.718Z,12.87
2018-06-16T04:05:10.202Z,14.17
2018-06-16T04:07:38.575Z,12.40
2018-06-16T04:10:06.985Z,12.70
2018-06-16T04:12:35.373Z,12.70
2018-06-16T04:15:03.896Z,11.80
2018-06-16T04:17:32.294Z,10.53
2018-06-16T04:20:00.692Z,12.17
2018-06-16T04:22:29.065Z,11.47
2018-06-16T04:24:58.333Z,12.23
2018-06-16T04:27:26.728Z,12.17
2018-06-16T04:29:55.185Z,11.20
2018-06-16T04:32:23.628Z,12.47
2018-06-16T04:34:52.142Z,15.23
2018-06-16T04:37:20.538Z,12.17
2018-06-16T04:39:49.001Z,12.20
2018-06-16T04:42:17.468Z,12.20
2018-06-16T04:44:46.280Z,12.27
2018-06-16T04:47:14.728Z,12.00
2018-06-16T04:49:43.096Z,12.00
2018-06-16T04:52:11.523Z,12.70
2018-06-16T04:54:39.930Z,13.17
2018-06-16T04:57:08.344Z,12.80
2018-06-16T04:59:36.712Z,13.03
2018-06-16T05:02:05.117Z,13.23
2018-06-16T05:04:33.546Z,13.63
2018-06-16T05:07:01.906Z,14.37
2018-06-16T05:09:30.326Z,15.53
2018-06-16T05:11:58.720Z,13.83
2018-06-16T05:14:27.159Z,16.13
2018-06-16T05:16:56.057Z,16.57
2018-06-16T05:19:24.566Z,12.93
2018-06-16T05:21:53.026Z,12.77
2018-06-16T05:24:21.487Z,12.73
2018-06-16T05:26:49.885Z,12.93
2018-06-16T05:29:18.321Z,12.57
2018-06-16T05:31:46.724Z,12.43
2018-06-16T05:34:15.177Z,13.43
2018-06-16T05:36:43.578Z,12.07
2018-06-16T05:39:12.045Z,14.57
2018-06-16T05:41:40.423Z,17.33
2018-06-16T05:44:08.895Z,16.97
2018-06-16T05:46:37.426Z,16.17
2018-06-16T05:49:06.146Z,16.33
2018-06-16T05:51:34.579Z,15.33
2018-06-16T05:54:03.120Z,16.83
2018-06-16T05:56:31.675Z,14.57
2018-06-16T05:59:00.136Z,15.90
2018-06-16T06:01:28.605Z,16.53
2018-06-16T06:03:57.120Z,18.70
2018-06-16T06:06:25.532Z,15.80
2018-06-16T06:08:54.002Z,16.43
2018-06-16T06:11:22.518Z,15.50
2018-06-16T06:13:51.167Z,16.60
2018-06-16T06:16:19.684Z,15.90
2018-06-16T06:18:48.108Z,15.43
2018-06-16T06:21:16.556Z,15.73
2018-06-16T06:23:44.985Z,15.50
2018-06-16T06:26:13.469Z,15.33
2018-06-16T06:28:41.846Z,13.97
2018-06-16T06:31:10.378Z,16.90
2018-06-16T06:33:38.824Z,13.50
2018-06-16T06:36:07.273Z,12.97
2018-06-16T06:38:35.758Z,13.27
2018-06-16T06:41:04.289Z,13.97
2018-06-16T06:43:32.769Z,12.70
2018-06-16T06:46:01.304Z,12.70
2018-06-16T06:48:29.441Z,13.33
2018-06-16T06:50:57.853Z,12.80
2018-06-16T06:53:26.394Z,12.33
2018-06-16T06:55:54.785Z,13.07
2018-06-16T06:58:23.204Z,12.67
2018-06-16T07:00:51.680Z,12.57
2018-06-16T07:03:20.095Z,11.97
2018-06-16T07:05:48.579Z,11.70
2018-06-16T07:08:17.046Z,11.10
2018-06-16T07:10:45.545Z,10.73
2018-06-16T07:13:14.108Z,12.63
2018-06-16T07:15:42.679Z,11.83
2018-06-16T07:18:11.213Z,10.20
2018-06-16T07:20:39.608Z,10.90
2018-06-16T07:23:08.021Z,11.93
2018-06-16T07:25:36.496Z,10.97
2018-06-16T07:28:05.122Z,9.97
2018-06-16T07:30:33.566Z,10.03
2018-06-16T07:33:02.100Z,9.60
2018-06-16T07:35:30.559Z,9.50
2018-06-16T07:37:58.975Z,9.80
2018-06-16T07:40:27.377Z,8.97
2018-06-16T07:42:55.810Z,9.40
2018-06-16T07:45:24.351Z,9.70
2018-06-16T07:47:52.809Z,9.57
2018-06-16T07:50:21.357Z,10.97
2018-06-16T07:52:49.969Z,9.03
2018-06-16T07:55:18.498Z,8.63
2018-06-16T07:57:47.019Z,10.33
2018-06-16T08:00:15.551Z,9.93
2018-06-16T08:02:44.015Z,8.00
2018-06-16T08:05:12.922Z,9.00
2018-06-16T08:07:41.456Z,9.07
2018-06-16T08:10:09.968Z,10.80
2018-06-16T08:12:38.495Z,7.30
2018-06-16T08:15:06.945Z,10.30
2018-06-16T08:17:35.446Z,9.03
2018-06-16T08:20:03.937Z,8.37
2018-06-16T08:22:32.408Z,10.33
2018-06-16T08:25:00.921Z,9.87
2018-06-16T08:27:29.374Z,7.73
2018-06-16T08:29:57.820Z,6.80
2018-06-16T08:32:26.399Z,8.23
2018-06-16T08:34:54.897Z,7.77
2018-06-16T08:37:23.402Z,8.23
2018-06-16T08:39:51.825Z,7.83
2018-06-16T08:42:20.254Z,8.33
2018-06-16T08:44:48.733Z,6.97
2018-06-16T08:47:17.386Z,6.47
2018-06-16T08:49:45.828Z,8.70
2018-06-16T08:52:14.375Z,7.53
2018-06-16T08:54:42.841Z,7.30
2018-06-16T08:57:11.341Z,8.13
2018-06-16T08:59:39.833Z,8.07
2018-06-16T09:02:08.338Z,7.50
2018-06-16T09:04:36.817Z,7.57
2018-06-16T09:07:05.361Z,7.30
2018-06-16T09:09:33.950Z,7.37
2018-06-16T09:12:02.539Z,7.23
2018-06-16T09:14:31.223Z,7.27
2018-06-16T09:16:59.735Z,7.00
2018-06-16T09:19:28.261Z,7.13
2018-06-16T09:21:56.787Z,6.30
2018-06-16T09:24:25.317Z,5.80
2018-06-16T09:26:53.751Z,7.20
2018-06-16T09:29:22.226Z,5.63
2018-06-16T09:31:50.775Z,5.83
2018-06-16T09:34:19.187Z,7.60
2018-06-16T09:36:47.634Z,7.13
2018-06-16T09:39:16.085Z,5.17
2018-06-16T09:41:44.584Z,5.03
2018-06-16T09:44:14.299Z,5.67
2018-06-16T09:46:42.772Z,5.27
2018-06-16T09:49:11.285Z,5.70
2018-06-16T09:51:39.921Z,5.97
2018-06-16T09:54:08.375Z,5.67
2018-06-16T09:56:37.214Z,5.70
2018-06-16T09:59:05.845Z,5.90
2018-06-16T10:01:34.297Z,6.60
2018-06-16T10:04:03.207Z,7.63
2018-06-16T10:06:32.019Z,7.40
2018-06-16T10:09:00.540Z,7.00
2018-06-16T10:11:29.002Z,8.00
2018-06-16T10:13:57.491Z,6.37
2018-06-16T10:16:26.186Z,6.23
2018-06-16T10:18:54.701Z,5.80
2018-06-16T10:21:23.182Z,6.33
2018-06-16T10:23:51.686Z,5.53
2018-06-16T10:26:20.089Z,6.37
2018-06-16T10:28:49.187Z,5.20
2018-06-16T10:31:17.658Z,6.10
2018-06-16T10:33:46.330Z,5.93
2018-06-16T10:36:14.991Z,5.90
2018-06-16T10:38:43.476Z,5.27
2018-06-16T10:41:12.036Z,5.50
2018-06-16T10:43:40.589Z,5.53
2018-06-16T10:46:08.788Z,5.40
2018-06-16T10:48:37.419Z,6.90
2018-06-16T10:51:05.906Z,5.80
2018-06-16T10:53:34.443Z,5.77
2018-06-16T10:56:02.922Z,6.00
2018-06-16T10:58:31.447Z,5.87
2018-06-16T11:00:59.932Z,6.80
2018-06-16T11:03:28.381Z,7.43
2018-06-16T11:05:56.961Z,7.70
2018-06-16T11:08:25.439Z,6.03
2018-06-16T11:10:53.987Z,6.00
2018-06-16T11:13:22.726Z,7.07
2018-06-16T11:15:51.413Z,4.97
2018-06-16T11:18:19.882Z,5.37
2018-06-16T11:20:48.446Z,5.70
2018-06-16T11:23:16.925Z,5.43
2018-06-16T11:25:45.347Z,5.23
2018-06-16T11:28:13.887Z,4.80
2018-06-16T11:30:42.462Z,6.10
2018-06-16T11:33:10.893Z,6.23
2018-06-16T11:35:39.312Z,5.47
2018-06-16T11:38:07.764Z,5.80
2018-06-16T11:40:36.242Z,5.33
2018-06-16T11:43:04.758Z,5.50
2018-06-16T11:45:33.206Z,5.73
2018-06-16T11:48:01.633Z,5.00
2018-06-16T11:50:30.074Z,6.13
2018-06-16T11:52:58.570Z,5.23
2018-06-16T11:55:27.052Z,5.60
2018-06-16T11:57:55.584Z,5.47
2018-06-16T12:00:24.052Z,5.83
2018-06-16T12:02:52.548Z,6.30
2018-06-16T12:05:21.047Z,5.37
2018-06-16T12:07:49.505Z,4.53
2018-06-16T12:10:18.132Z,5.20
2018-06-16T12:12:46.541Z,6.57
2018-06-16T12:15:15.040Z,6.53
2018-06-16T12:17:43.564Z,4.53
2018-06-16T12:20:12.100Z,4.80
2018-06-16T12:22:40.621Z,5.07
2018-06-16T12:25:09.145Z,7.03
2018-06-16T12:27:37.665Z,6.03
2018-06-16T12:30:06.244Z,5.30
2018-06-16T12:32:34.738Z,9.53
2018-06-16T12:35:03.258Z,6.27
2018-06-16T12:37:32.548Z,5.53
2018-06-16T12:40:01.075Z,4.93
2018-06-16T12:42:29.639Z,4.80
2018-06-16T12:44:58.187Z,5.43
2018-06-16T12:47:26.325Z,5.20
2018-06-16T12:49:54.814Z,4.57
2018-06-16T12:52:23.322Z,4.97
2018-06-16T12:54:51.763Z,5.67
2018-06-16T12:57:20.287Z,4.90
2018-06-16T12:59:48.484Z,4.97
2018-06-16T13:02:17.014Z,5.90
2018-06-16T13:04:45.467Z,7.47
2018-06-16T13:07:14.313Z,5.87
2018-06-16T13:09:42.987Z,6.43
2018-06-16T13:12:11.549Z,6.67
2018-06-16T13:14:39.962Z,6.40
2018-06-16T13:17:08.423Z,6.07
2018-06-16T13:19:36.979Z,5.27
2018-06-16T13:22:05.469Z,5.30
2018-06-16T13:24:33.874Z,5.77
2018-06-16T13:27:02.314Z,5.37
2018-06-16T13:29:30.904Z,8.33
2018-06-16T13:31:59.412Z,4.90
2018-06-16T13:34:29.068Z,5.00
2018-06-16T13:36:57.543Z,4.83
2018-06-16T13:39:25.988Z,4.73
2018-06-16T13:41:54.470Z,4.87
2018-06-16T13:44:22.847Z,5.23
2018-06-16T13:46:50.971Z,6.57
2018-06-16T13:49:19.481Z,5.40
2018-06-16T13:51:48.152Z,7.73
2018-06-16T13:54:16.636Z,5.30
2018-06-16T13:56:45.162Z,5.43
2018-06-16T13:59:13.646Z,5.33
2018-06-16T14:01:42.084Z,5.73
2018-06-16T14:04:10.541Z,7.10
2018-06-16T14:06:39.005Z,6.20
2018-06-16T14:09:08.981Z,5.03
2018-06-16T14:11:37.483Z,8.20
2018-06-16T14:14:06.188Z,5.23
2018-06-16T14:16:34.789Z,5.10
2018-06-16T14:19:03.264Z,5.67
2018-06-16T14:21:31.691Z,6.20
2018-06-16T14:24:00.115Z,5.33
2018-06-16T14:26:28.501Z,5.80
2018-06-16T14:28:57.079Z,5.80
2018-06-16T14:31:25.689Z,7.03
2018-06-16T14:33:54.376Z,7.17
2018-06-16T14:36:22.901Z,6.47
2018-06-16T14:38:51.086Z,5.07
2018-06-16T14:41:19.558Z,6.40
2018-06-16T14:43:47.966Z,9.27
2018-06-16T14:46:16.366Z,9.57
2018-06-16T14:48:44.824Z,5.40
2018-06-16T14:51:13.233Z,6.47
2018-06-16T14:53:41.684Z,5.03
2018-06-16T14:56:10.369Z,5.20
2018-06-16T14:58:38.785Z,5.80
2018-06-16T15:01:07.340Z,6.03
2018-06-16T15:03:35.770Z,5.37
2018-06-16T15:06:04.250Z,6.50
2018-06-16T15:08:32.807Z,7.07
2018-06-16T15:11:01.357Z,6.97
2018-06-16T15:13:33.115Z,5.60
2018-06-16T15:16:01.535Z,5.73
2018-06-16T15:18:30.038Z,7.23
2018-06-16T15:20:58.227Z,8.57
2018-06-16T15:23:26.657Z,7.40
2018-06-16T15:25:55.312Z,5.73
2018-06-16T15:28:23.714Z,5.37
2018-06-16T15:30:52.185Z,6.77
2018-06-16T15:33:20.689Z,7.20
2018-06-16T15:35:49.234Z,6.00
2018-06-16T15:38:17.765Z,6.40
2018-06-16T15:40:46.289Z,7.23
2018-06-16T15:43:14.741Z,6.03
2018-06-16T15:45:43.205Z,6.90
2018-06-16T15:48:11.669Z,5.90
2018-06-16T15:50:40.166Z,5.83
2018-06-16T15:53:08.656Z,6.30
2018-06-16T15:55:37.310Z,5.63
2018-06-16T15:58:05.937Z,5.67
2018-06-16T16:00:34.434Z,6.43
2018-06-16T16:03:02.836Z,7.13
2018-06-16T16:05:31.478Z,7.63
2018-06-16T16:07:59.945Z,7.17
2018-06-16T16:10:28.383Z,7.70
2018-06-16T16:12:56.773Z,9.13
2018-06-16T16:15:25.220Z,8.67
2018-06-16T16:17:53.643Z,7.77
2018-06-16T16:20:22.104Z,10.40
2018-06-16T16:22:50.504Z,7.30
2018-06-16T16:25:18.913Z,8.00
2018-06-16T16:27:47.368Z,6.63
2018-06-16T16:30:15.859Z,7.07
2018-06-16T16:32:44.385Z,6.10
2018-06-16T16:35:13.109Z,6.30
2018-06-16T16:37:41.621Z,10.57
2018-06-16T16:40:09.796Z,6.20
2018-06-16T16:42:38.246Z,8.17
2018-06-16T16:45:09.565Z,7.13
2018-06-16T16:47:38.093Z,6.53
2018-06-16T16:50:06.635Z,7.27
2018-06-16T16:52:35.229Z,6.27
2018-06-16T16:55:03.724Z,6.13
2018-06-16T16:57:32.222Z,6.03
2018-06-16T17:00:00.743Z,6.33
2018-06-16T17:02:29.253Z,6.07
2018-06-16T17:04:57.766Z,6.33
2018-06-16T17:07:26.186Z,6.80
2018-06-16T17:09:54.929Z,10.60
2018-06-16T17:12:23.362Z,5.53
2018-06-16T17:14:51.937Z,6.17
2018-06-16T17:17:20.534Z,6.37
2018-06-16T17:19:49.115Z,6.90
2018-06-16T17:22:17.702Z,7.63
2018-06-16T17:24:46.458Z,6.53
2018-06-16T17:27:15.128Z,6.87
2018-06-16T17:29:43.630Z,19.40
2018-06-16T17:32:12.140Z,8.43
2018-06-16T17:34:40.708Z,7.43
2018-06-16T17:37:09.179Z,8.20
2018-06-16T17:39:37.735Z,7.60
2018-06-16T17:42:06.211Z,7.13
2018-06-16T17:44:34.836Z,9.33
2018-06-16T17:47:03.453Z,8.23
2018-06-16T17:49:31.902Z,9.90
2018-06-16T17:52:00.779Z,7.73
2018-06-16T17:54:30.533Z,8.37
2018-06-16T17:56:59.140Z,8.77
2018-06-16T17:59:27.840Z,9.17
2018-06-16T18:01:56.583Z,7.10
2018-06-16T18:04:25.322Z,11.13
2018-06-16T18:06:53.901Z,7.13
2018-06-16T18:09:22.366Z,6.10
2018-06-16T18:11:50.931Z,6.70
2018-06-16T18:14:19.423Z,6.50
2018-06-16T18:16:47.865Z,6.37
2018-06-16T18:19:16.330Z,6.50
2018-06-16T18:21:44.874Z,6.80
2018-06-16T18:24:13.473Z,6.47
2018-06-16T18:26:41.993Z,6.97
2018-06-16T18:29:10.492Z,7.47
2018-06-16T18:31:39.144Z,6.87
2018-06-16T18:34:07.732Z,6.97
2018-06-16T18:36:36.847Z,7.10
2018-06-16T18:39:07.887Z,6.37
2018-06-16T18:41:36.739Z,7.97
2018-06-16T18:44:05.703Z,7.30
2018-06-16T18:46:34.669Z,7.13
2018-06-16T18:49:03.524Z,6.80
2018-06-16T18:51:32.148Z,7.33
2018-06-16T18:54:00.722Z,7.10
2018-06-16T18:56:29.608Z,8.00
2018-06-16T18:58:58.193Z,9.37
2018-06-16T19:01:27.397Z,8.10
2018-06-16T19:03:56.258Z,8.13
2018-06-16T19:06:24.965Z,9.03
2018-06-16T19:08:54.008Z,10.03
2018-06-16T19:11:22.625Z,7.73
2018-06-16T19:13:51.245Z,7.83
2018-06-16T19:16:19.876Z,9.83
2018-06-16T19:18:48.705Z,8.00
2018-06-16T19:21:17.235Z,9.73
2018-06-16T19:23:45.880Z,8.93
2018-06-16T19:26:14.434Z,9.73
2018-06-16T19:28:43.087Z,9.00
2018-06-16T19:31:11.717Z,9.20
2018-06-16T19:33:40.790Z,9.50
2018-06-16T19:36:09.459Z,9.90
2018-06-16T19:38:38.225Z,10.07
2018-06-16T19:41:07.013Z,10.50
2018-06-16T19:43:35.515Z,16.13
2018-06-16T19:46:04.104Z,11.57
2018-06-16T19:48:32.666Z,11.23
2018-06-16T19:51:01.340Z,12.27
2018-06-16T19:53:29.911Z,10.93
2018-06-16T19:55:58.539Z,12.40
2018-06-16T19:58:27.142Z,10.23
2018-06-16T20:00:55.798Z,12.00
2018-06-16T20:03:24.293Z,11.53
2018-06-16T20:05:52.824Z,10.93
2018-06-16T20:08:21.347Z,11.37
2018-06-16T20:10:49.918Z,11.53
2018-06-16T20:13:18.526Z,12.77
2018-06-16T20:15:47.201Z,18.47
2018-06-16T20:18:15.880Z,12.97
2018-06-16T20:20:45.103Z,12.80
2018-06-16T20:23:13.726Z,13.13
2018-06-16T20:25:42.262Z,27.20
2018-06-16T20:28:10.834Z,13.47
2018-06-16T20:30:39.347Z,18.93
2018-06-16T20:33:07.952Z,17.07
2018-06-16T20:35:36.558Z,19.33
2018-06-16T20:38:05.186Z,20.43
2018-06-16T20:40:33.765Z,15.00
2018-06-16T20:43:02.295Z,36.97
2018-06-16T20:45:30.798Z,19.40
2018-06-16T20:47:59.735Z,14.37
2018-06-16T20:50:28.378Z,15.10
2018-06-16T20:52:57.011Z,15.13
2018-06-16T20:55:25.603Z,15.40
2018-06-16T20:57:54.181Z,15.77
2018-06-16T21:00:22.819Z,15.50
2018-06-16T21:02:51.309Z,16.23
2018-06-16T21:05:19.882Z,16.37
2018-06-16T21:07:48.361Z,14.87
2018-06-16T21:10:16.859Z,15.23
2018-06-16T21:12:45.546Z,14.20
2018-06-16T21:15:14.197Z,13.73
2018-06-16T21:17:42.773Z,15.20
2018-06-16T21:20:11.487Z,15.37
2018-06-16T21:22:40.717Z,14.80
2018-06-16T21:25:09.308Z,14.60
2018-06-16T21:27:38.579Z,15.03
2018-06-16T21:30:07.169Z,15.30
2018-06-16T21:32:35.746Z,17.43
2018-06-16T21:35:04.565Z,15.53
2018-06-16T21:37:33.091Z,15.73
2018-06-16T21:40:01.593Z,15.13
2018-06-16T21:42:30.051Z,20.60
2018-06-16T21:44:58.858Z,15.10
2018-06-16T21:47:27.374Z,17.33
2018-06-16T21:49:55.827Z,16.10
2018-06-16T21:52:24.347Z,14.83
2018-06-16T21:54:52.886Z,14.13
2018-06-16T21:57:21.483Z,14.57
2018-06-16T21:59:50.052Z,15.00
2018-06-16T22:02:18.813Z,14.17
2018-06-16T22:04:47.273Z,15.40
2018-06-16T22:07:15.908Z,15.67
2018-06-16T22:09:45.095Z,15.93
2018-06-16T22:12:13.581Z,15.17
2018-06-16T22:14:42.022Z,18.07
2018-06-16T22:17:10.560Z,13.73
2018-06-16T22:19:39.157Z,13.17
2018-06-16T22:22:07.673Z,13.37
2018-06-16T22:24:36.249Z,12.73
2018-06-16T22:27:04.867Z,13.03
2018-06-16T22:29:33.494Z,15.13
2018-06-16T22:32:01.987Z,17.83
2018-06-16T22:34:30.435Z,15.57
2018-06-16T22:36:58.905Z,16.33
2018-06-16T22:39:27.414Z,15.33
2018-06-16T22:41:55.914Z,16.20
2018-06-16T22:44:24.398Z,14.83
2018-06-16T22:46:53.108Z,13.47
2018-06-16T22:49:21.595Z,15.57
2018-06-16T22:51:50.075Z,14.10
2018-06-16T22:54:18.521Z,13.93
2018-06-16T22:56:46.955Z,14.30
2018-06-16T22:59:15.939Z,14.27
2018-06-16T23:01:44.660Z,14.07
2018-06-16T23:04:13.144Z,13.57
2018-06-16T23:06:41.672Z,15.27
2018-06-16T23:09:11.788Z,13.80
2018-06-16T23:11:40.260Z,14.43
2018-06-16T23:14:09.007Z,14.90
2018-06-16T23:16:37.927Z,14.73
2018-06-16T23:19:06.449Z,14.77
2018-06-16T23:21:35.066Z,14.60
2018-06-16T23:24:03.672Z,15.87
2018-06-16T23:26:32.110Z,14.67
2018-06-16T23:29:00.520Z,14.83
2018-06-16T23:34:03.664Z,15.20
2018-06-16T23:36:32.130Z,15.43
2018-06-16T23:39:00.547Z,15.47
2018-06-16T23:41:29.036Z,16.13
2018-06-16T23:43:57.483Z,16.03
2018-06-16T23:46:25.990Z,15.63
2018-06-16T23:48:54.435Z,15.70
2018-06-16T23:51:22.972Z,15.60
2018-06-16T23:53:51.459Z,17.20
2018-06-16T23:56:19.884Z,17.97
2018-06-16T23:58:48.358Z,19.67
